sensor_id;sensor_type;location;lat;lon;timestamp;P1;durP1;ratioP1;P2;durP2;ratioP2
63782;SDS011;49925;52.522;5.732;2024-01-16T00:02:05;11.82;;;1.67;;
63782;SDS011;49925;52.522;5.732;2024-01-16T00:04:36;9.85;;;1.65;;
63782;SDS011;49925;52.522;5.732;2024-01-16T00:07:04;6.47;;;1.35;;
63782;SDS011;49925;52.522;5.732;2024-01-16T00:09:34;13.15;;;1.50;;
63782;SDS011;49925;52.522;5.732;2024-01-16T00:12:02;7.53;;;1.60;;
63782;SDS011;49925;52.522;5.732;2024-01-16T00:14:30;10.40;;;1.65;;
63782;SDS011;49925;52.522;5.732;2024-01-16T00:17:01;9.13;;;2.00;;
63782;SDS011;49925;52.522;5.732;2024-01-16T00:19:32;10.20;;;1.85;;
63782;SDS011;49925;52.522;5.732;2024-01-16T00:21:59;6.45;;;1.67;;
63782;SDS011;49925;52.522;5.732;2024-01-16T00:24:27;4.15;;;1.52;;
63782;SDS011;49925;52.522;5.732;2024-01-16T00:26:54;7.22;;;1.80;;
63782;SDS011;49925;52.522;5.732;2024-01-16T00:29:21;5.85;;;1.85;;
63782;SDS011;49925;52.522;5.732;2024-01-16T00:31:48;11.05;;;1.52;;
63782;SDS011;49925;52.522;5.732;2024-01-16T00:34:16;6.25;;;1.23;;
63782;SDS011;49925;52.522;5.732;2024-01-16T00:36:43;10.43;;;1.98;;
63782;SDS011;49925;52.522;5.732;2024-01-16T00:39:10;9.35;;;1.55;;
63782;SDS011;49925;52.522;5.732;2024-01-16T00:41:37;7.57;;;1.42;;
63782;SDS011;49925;52.522;5.732;2024-01-16T00:44:05;7.70;;;1.27;;
63782;SDS011;49925;52.522;5.732;2024-01-16T00:46:32;5.80;;;1.40;;
63782;SDS011;49925;52.522;5.732;2024-01-16T00:48:59;15.05;;;2.00;;
63782;SDS011;49925;52.522;5.732;2024-01-16T00:51:26;4.15;;;1.10;;
63782;SDS011;49925;52.522;5.732;2024-01-16T00:53:53;7.38;;;1.30;;
63782;SDS011;49925;52.522;5.732;2024-01-16T00:56:21;10.27;;;2.00;;
63782;SDS011;49925;52.522;5.732;2024-01-16T00:58:48;9.15;;;1.90;;
63782;SDS011;49925;52.522;5.732;2024-01-16T01:01:15;8.98;;;1.33;;
63782;SDS011;49925;52.522;5.732;2024-01-16T01:03:43;10.88;;;1.60;;
63782;SDS011;49925;52.522;5.732;2024-01-16T01:06:10;3.78;;;1.13;;
63782;SDS011;49925;52.522;5.732;2024-01-16T01:08:38;4.60;;;1.13;;
63782;SDS011;49925;52.522;5.732;2024-01-16T01:11:06;11.65;;;1.60;;
63782;SDS011;49925;52.522;5.732;2024-01-16T01:13:33;9.35;;;2.22;;
63782;SDS011;49925;52.522;5.732;2024-01-16T01:16:00;5.30;;;1.65;;
63782;SDS011;49925;52.522;5.732;2024-01-16T01:18:27;11.65;;;1.73;;
63782;SDS011;49925;52.522;5.732;2024-01-16T01:20:56;8.45;;;1.58;;
63782;SDS011;49925;52.522;5.732;2024-01-16T01:23:23;8.70;;;1.58;;
63782;SDS011;49925;52.522;5.732;2024-01-16T01:25:51;14.07;;;1.83;;
63782;SDS011;49925;52.522;5.732;2024-01-16T01:28:18;14.40;;;1.98;;
63782;SDS011;49925;52.522;5.732;2024-01-16T01:30:45;10.55;;;1.63;;
63782;SDS011;49925;52.522;5.732;2024-01-16T01:33:13;6.68;;;1.60;;
63782;SDS011;49925;52.522;5.732;2024-01-16T01:35:40;15.00;;;1.45;;
63782;SDS011;49925;52.522;5.732;2024-01-16T01:38:07;7.07;;;1.50;;
63782;SDS011;49925;52.522;5.732;2024-01-16T01:40:35;10.95;;;1.63;;
63782;SDS011;49925;52.522;5.732;2024-01-16T01:43:21;10.85;;;1.50;;
63782;SDS011;49925;52.522;5.732;2024-01-16T01:48:41;12.52;;;1.80;;
63782;SDS011;49925;52.522;5.732;2024-01-16T01:51:12;10.73;;;1.83;;
63782;SDS011;49925;52.522;5.732;2024-01-16T01:53:41;8.95;;;1.27;;
63782;SDS011;49925;52.522;5.732;2024-01-16T01:56:11;11.98;;;2.00;;
63782;SDS011;49925;52.522;5.732;2024-01-16T01:58:43;6.80;;;1.35;;
63782;SDS011;49925;52.522;5.732;2024-01-16T02:03:47;11.52;;;1.70;;
63782;SDS011;49925;52.522;5.732;2024-01-16T02:06:16;13.82;;;1.75;;
63782;SDS011;49925;52.522;5.732;2024-01-16T02:08:44;7.50;;;1.27;;
63782;SDS011;49925;52.522;5.732;2024-01-16T08:22:53;9.27;;;2.80;;
63782;SDS011;49925;52.522;5.732;2024-01-16T08:25:20;7.20;;;2.55;;
63782;SDS011;49925;52.522;5.732;2024-01-16T22:12:01;15.40;;;5.40;;
63782;SDS011;49925;52.522;5.732;2024-01-16T23:16:19;25.90;;;8.10;;
63782;SDS011;49925;52.522;5.732;2024-01-16T23:18:47;21.30;;;7.90;;
63782;SDS011;49925;52.522;5.732;2024-01-16T23:21:21;22.80;;;8.73;;
63782;SDS011;49925;52.522;5.732;2024-01-16T23:23:50;25.20;;;8.57;;
63782;SDS011;49925;52.522;5.732;2024-01-16T23:26:17;23.65;;;7.80;;
63782;SDS011;49925;52.522;5.732;2024-01-16T23:28:49;23.42;;;8.30;;
63782;SDS011;49925;52.522;5.732;2024-01-16T23:31:16;22.67;;;8.77;;
63782;SDS011;49925;52.522;5.732;2024-01-16T23:33:44;17.83;;;7.70;;
63782;SDS011;49925;52.522;5.732;2024-01-16T23:36:11;25.13;;;7.57;;
63782;SDS011;49925;52.522;5.732;2024-01-16T23:38:38;24.73;;;7.63;;
63782;SDS011;49925;52.522;5.732;2024-01-16T23:41:07;25.27;;;8.70;;
63782;SDS011;49925;52.522;5.732;2024-01-16T23:43:38;22.05;;;8.48;;
63782;SDS011;49925;52.522;5.732;2024-01-16T23:46:05;18.95;;;8.32;;
63782;SDS011;49925;52.522;5.732;2024-01-16T23:48:37;29.02;;;8.60;;
63782;SDS011;49925;52.522;5.732;2024-01-16T23:51:04;18.30;;;8.05;;
63782;SDS011;49925;52.522;5.732;2024-01-16T23:53:32;21.80;;;8.07;;
63782;SDS011;49925;52.522;5.732;2024-01-16T23:55:59;20.70;;;7.85;;
63782;SDS011;49925;52.522;5.732;2024-01-16T23:58:26;17.30;;;8.32;;
